createdAt,value
2023-05-01T00:00:22.493Z,62.96
2023-05-01T00:02:49.086Z,63.23
2023-05-01T00:05:15.751Z,63.29
2023-05-01T00:07:42.271Z,63.52
2023-05-01T00:10:08.933Z,63.76
2023-05-01T00:12:35.439Z,63.81
2023-05-01T00:15:01.913Z,63.98
2023-05-01T00:17:28.445Z,64.19
2023-05-01T00:19:55.225Z,64.31
2023-05-01T00:22:21.874Z,64.50
2023-05-01T00:24:48.366Z,64.55
2023-05-01T00:27:15.038Z,64.82
2023-05-01T00:29:41.533Z,65.02
2023-05-01T00:32:08.117Z,65.07
2023-05-01T00:34:34.628Z,65.05
2023-05-01T00:37:01.089Z,65.32
2023-05-01T00:39:27.553Z,65.68
2023-05-01T00:41:54.015Z,65.69
2023-05-01T00:44:20.520Z,65.46
2023-05-01T00:46:47.102Z,65.63
2023-05-01T00:49:13.593Z,65.55
2023-05-01T00:51:40.758Z,65.87
2023-05-01T00:54:07.265Z,66.05
2023-05-01T00:56:33.857Z,66.03
2023-05-01T00:59:00.384Z,66.12
2023-05-01T01:01:26.937Z,66.27
2023-05-01T01:03:53.490Z,66.35
2023-05-01T01:06:41.369Z,66.34
2023-05-01T01:09:36.079Z,66.60
2023-05-01T01:12:17.693Z,66.88
2023-05-01T01:14:53.356Z,66.94
2023-05-01T01:17:42.145Z,67.04
2023-05-01T01:20:31.348Z,67.03
2023-05-01T01:23:17.505Z,67.29
2023-05-01T01:26:11.773Z,67.50
2023-05-01T01:28:44.302Z,67.56
2023-05-01T01:31:29.695Z,67.85
2023-05-01T01:34:02.894Z,67.85
2023-05-01T01:37:10.932Z,67.77
2023-05-01T01:39:45.676Z,68.27
2023-05-01T01:42:18.234Z,68.37
2023-05-01T01:44:52.112Z,68.49
2023-05-01T01:47:20.030Z,68.40
2023-05-01T01:49:51.550Z,68.52
2023-05-01T01:52:20.343Z,68.66
2023-05-01T01:54:51.295Z,68.57
2023-05-01T01:57:20.822Z,68.59
2023-05-01T01:59:49.696Z,68.61
2023-05-01T02:02:19.255Z,68.55
2023-05-01T02:04:47.506Z,68.49
2023-05-01T02:07:16.399Z,68.67
2023-05-01T02:09:45.319Z,68.63
2023-05-01T02:12:12.972Z,68.80
2023-05-01T02:14:41.112Z,68.84
2023-05-01T02:17:09.988Z,69.07
2023-05-01T02:19:38.987Z,68.98
2023-05-01T02:22:07.142Z,68.98
2023-05-01T02:24:35.640Z,68.89
2023-05-01T02:27:07.853Z,68.71
2023-05-01T02:29:34.312Z,68.53
2023-05-01T02:32:01.135Z,68.50
2023-05-01T02:34:27.682Z,68.73
2023-05-01T02:36:54.179Z,69.00
2023-05-01T02:39:20.779Z,69.00
2023-05-01T02:41:48.763Z,69.03
2023-05-01T02:44:16.130Z,68.97
2023-05-01T02:46:45.186Z,68.89
2023-05-01T02:49:12.665Z,69.06
2023-05-01T02:51:40.468Z,69.26
2023-05-01T02:54:07.913Z,69.52
2023-05-01T02:56:34.920Z,69.43
2023-05-01T02:59:01.387Z,69.47
2023-05-01T03:01:27.998Z,69.69
2023-05-01T03:03:54.515Z,69.69
2023-05-01T03:06:21.121Z,69.78
2023-05-01T03:08:47.658Z,70.02
2023-05-01T03:11:14.364Z,70.02
2023-05-01T03:13:40.844Z,70.07
2023-05-01T03:16:07.439Z,69.94
2023-05-01T03:18:33.908Z,69.64
2023-05-01T03:21:00.359Z,69.42
2023-05-01T03:23:26.815Z,69.17
2023-05-01T03:25:53.341Z,68.95
2023-05-01T03:28:19.792Z,69.02
2023-05-01T03:30:46.258Z,69.11
2023-05-01T03:33:12.782Z,68.97
2023-05-01T03:35:39.283Z,68.88
2023-05-01T03:38:05.840Z,68.51
2023-05-01T03:40:32.548Z,68.53
2023-05-01T03:42:58.998Z,68.38
2023-05-01T03:45:25.506Z,68.09
2023-05-01T03:47:52.020Z,67.93
2023-05-01T03:50:18.677Z,67.77
2023-05-01T03:52:45.222Z,67.21
2023-05-01T03:55:11.728Z,67.11
2023-05-01T03:57:38.208Z,67.09
2023-05-01T04:00:05.123Z,66.41
2023-05-01T04:02:31.654Z,66.26
2023-05-01T04:04:58.165Z,66.13
2023-05-01T04:07:24.772Z,65.75
2023-05-01T04:09:51.244Z,65.74
2023-05-01T04:12:17.852Z,65.84
2023-05-01T04:14:44.313Z,66.03
2023-05-01T04:17:10.834Z,66.30
2023-05-01T04:19:37.310Z,66.57
2023-05-01T04:22:03.826Z,66.61
2023-05-01T04:24:30.322Z,66.71
2023-05-01T04:26:56.950Z,66.57
2023-05-01T04:29:23.429Z,66.43
2023-05-01T04:31:49.905Z,66.51
2023-05-01T04:34:16.428Z,66.24
2023-05-01T04:36:42.936Z,66.75
2023-05-01T04:39:09.416Z,66.35
2023-05-01T04:41:35.911Z,66.53
2023-05-01T04:44:02.437Z,66.46
2023-05-01T04:46:29.102Z,66.41
2023-05-01T04:48:55.635Z,65.32
2023-05-01T04:51:22.198Z,64.28
2023-05-01T04:53:48.711Z,64.41
2023-05-01T04:56:15.283Z,64.19
2023-05-01T04:58:41.761Z,64.02
2023-05-01T05:01:08.303Z,63.31
2023-05-01T05:03:34.894Z,62.52
2023-05-01T05:06:01.508Z,61.84
2023-05-01T05:08:28.026Z,61.51
2023-05-01T05:10:59.084Z,61.32
2023-05-01T05:13:26.057Z,60.66
2023-05-01T05:15:52.628Z,59.64
2023-05-01T05:18:19.335Z,60.17
2023-05-01T05:20:46.058Z,59.74
2023-05-01T05:23:12.562Z,59.14
2023-05-01T05:25:39.053Z,58.38
2023-05-01T05:28:05.583Z,57.98
2023-05-01T05:30:32.070Z,57.52
2023-05-01T05:32:58.590Z,57.26
2023-05-01T05:35:25.175Z,56.45
2023-05-01T05:37:51.724Z,56.30
2023-05-01T05:40:18.275Z,54.51
2023-05-01T05:42:44.753Z,53.74
2023-05-01T05:45:11.436Z,53.81
2023-05-01T05:47:38.143Z,53.59
2023-05-01T05:50:06.760Z,52.15
2023-05-01T05:52:33.267Z,51.72
2023-05-01T05:54:59.775Z,50.49
2023-05-01T05:57:26.287Z,49.88
2023-05-01T05:59:52.774Z,49.86
2023-05-01T06:02:19.363Z,49.19
2023-05-01T06:04:45.859Z,48.47
2023-05-01T06:07:12.340Z,48.20
2023-05-01T06:09:38.816Z,47.96
2023-05-01T06:12:05.591Z,47.69
2023-05-01T06:14:32.074Z,46.75
2023-05-01T06:16:58.621Z,46.91
2023-05-01T06:19:25.170Z,46.32
2023-05-01T06:21:51.661Z,45.41
2023-05-01T06:24:18.377Z,45.40
2023-05-01T06:26:44.839Z,44.99
2023-05-01T06:29:11.345Z,45.03
2023-05-01T06:31:37.926Z,45.36
2023-05-01T06:34:04.435Z,44.22
2023-05-01T06:36:30.908Z,44.70
2023-05-01T06:38:57.371Z,43.63
2023-05-01T06:41:23.861Z,43.66
2023-05-01T06:43:50.327Z,43.60
2023-05-01T06:46:19.913Z,43.82
2023-05-01T06:48:46.424Z,43.04
2023-05-01T06:51:12.877Z,42.62
2023-05-01T06:53:39.328Z,42.26
2023-05-01T06:56:06.089Z,41.64
2023-05-01T06:58:32.571Z,42.04
2023-05-01T07:00:59.133Z,42.00
2023-05-01T07:03:25.709Z,41.41
2023-05-01T07:05:52.225Z,40.31
2023-05-01T07:08:18.723Z,40.69
2023-05-01T07:10:45.410Z,40.84
2023-05-01T07:13:12.017Z,41.14
2023-05-01T07:15:38.714Z,41.15
2023-05-01T07:18:05.243Z,40.76
2023-05-01T07:20:33.771Z,39.69
2023-05-01T07:23:00.486Z,40.13
2023-05-01T07:25:27.050Z,40.00
2023-05-01T07:27:53.564Z,40.33
2023-05-01T07:30:20.168Z,40.42
2023-05-01T07:32:46.715Z,39.91
2023-05-01T07:35:13.701Z,39.68
2023-05-01T07:37:40.169Z,40.23
2023-05-01T07:40:07.252Z,39.85
2023-05-01T07:42:33.701Z,39.44
2023-05-01T07:45:00.201Z,39.85
2023-05-01T07:47:26.758Z,39.90
2023-05-01T07:49:53.280Z,39.77
2023-05-01T07:52:19.803Z,39.49
2023-05-01T07:54:50.625Z,38.61
2023-05-01T07:57:17.083Z,38.59
2023-05-01T07:59:43.559Z,38.61
2023-05-01T08:02:10.101Z,38.64
2023-05-01T08:04:36.685Z,38.49
2023-05-01T08:07:03.155Z,38.96
2023-05-01T08:09:29.631Z,39.01
2023-05-01T08:11:56.101Z,38.59
2023-05-01T08:14:22.673Z,38.09
2023-05-01T08:16:49.263Z,38.81
2023-05-01T08:19:15.764Z,38.47
2023-05-01T08:21:42.308Z,38.19
2023-05-01T08:24:09.636Z,37.91
2023-05-01T08:26:36.202Z,37.90
2023-05-01T08:29:02.729Z,37.75
2023-05-01T08:31:29.321Z,37.03
2023-05-01T08:33:55.824Z,37.22
2023-05-01T08:36:22.887Z,37.37
2023-05-01T08:38:49.379Z,36.89
2023-05-01T08:41:20.123Z,36.82
2023-05-01T08:43:46.918Z,36.03
2023-05-01T08:46:19.878Z,36.56
2023-05-01T08:48:47.292Z,36.56
2023-05-01T08:51:16.587Z,35.71
2023-05-01T08:53:44.715Z,35.94
2023-05-01T08:56:11.882Z,35.90
2023-05-01T08:58:38.450Z,36.03
2023-05-01T09:01:06.174Z,35.57
2023-05-01T09:03:33.387Z,34.53
2023-05-01T09:06:02.610Z,34.73
2023-05-01T09:08:29.119Z,33.95
2023-05-01T09:10:57.862Z,33.45
2023-05-01T09:13:25.443Z,34.40
2023-05-01T09:15:51.983Z,34.41
2023-05-01T09:18:18.554Z,33.93
2023-05-01T09:20:45.146Z,33.46
2023-05-01T09:23:11.643Z,33.44
2023-05-01T09:25:38.139Z,33.47
2023-05-01T09:28:05.454Z,34.45
2023-05-01T09:30:37.155Z,33.65
2023-05-01T09:33:11.305Z,32.94
2023-05-01T09:35:58.486Z,32.21
2023-05-01T09:38:27.625Z,32.12
2023-05-01T09:40:56.911Z,32.96
2023-05-01T09:43:26.715Z,32.20
2023-05-01T09:46:03.767Z,32.44
2023-05-01T09:48:32.068Z,31.64
2023-05-01T09:51:00.707Z,30.63
2023-05-01T09:53:40.571Z,31.37
2023-05-01T09:56:07.478Z,30.79
2023-05-01T09:58:33.977Z,31.11
2023-05-01T10:01:00.582Z,30.95
2023-05-01T10:03:27.286Z,31.34
2023-05-01T10:05:53.917Z,30.39
2023-05-01T10:08:20.566Z,30.48
2023-05-01T10:11:00.319Z,32.92
2023-05-01T10:13:26.798Z,33.74
2023-05-01T10:15:53.289Z,30.57
2023-05-01T10:18:20.075Z,31.64
2023-05-01T10:20:46.788Z,32.63
2023-05-01T10:23:13.338Z,33.16
2023-05-01T10:25:42.196Z,34.15
2023-05-01T10:28:09.334Z,34.72
2023-05-01T10:30:36.060Z,34.15
2023-05-01T10:33:03.100Z,31.01
2023-05-01T10:35:34.391Z,29.66
2023-05-01T10:38:02.749Z,27.73
2023-05-01T10:40:41.213Z,26.22
2023-05-01T10:43:20.387Z,24.71
2023-05-01T10:45:48.550Z,22.66
2023-05-01T10:48:37.884Z,20.73
2023-05-01T10:51:11.896Z,19.37
2023-05-01T10:53:39.791Z,18.81
2023-05-01T10:56:23.185Z,18.67
2023-05-01T10:58:52.721Z,18.79
2023-05-01T11:01:35.378Z,17.85
2023-05-01T11:04:06.280Z,17.36
2023-05-01T11:06:33.016Z,17.39
2023-05-01T11:09:00.824Z,17.57
2023-05-01T11:11:27.268Z,17.77
2023-05-01T11:14:00.648Z,17.74
2023-05-01T11:16:39.561Z,17.81
2023-05-01T11:19:27.264Z,19.09
2023-05-01T11:21:55.756Z,19.88
2023-05-01T11:24:31.607Z,19.83
2023-05-01T11:26:58.192Z,20.60
2023-05-01T11:29:25.502Z,21.89
2023-05-01T11:31:52.189Z,21.56
2023-05-01T11:34:18.836Z,21.45
2023-05-01T11:36:50.682Z,22.44
2023-05-01T11:39:18.393Z,22.95
2023-05-01T11:41:45.880Z,23.35
2023-05-01T11:44:15.847Z,23.89
2023-05-01T11:46:42.656Z,24.99
2023-05-01T11:49:09.194Z,25.25
2023-05-01T11:51:35.694Z,25.77
2023-05-01T11:54:07.022Z,25.93
2023-05-01T11:56:34.619Z,25.79
2023-05-01T11:59:13.932Z,25.98
2023-05-01T12:01:43.320Z,26.69
2023-05-01T12:04:13.414Z,26.58
2023-05-01T12:06:41.999Z,26.58
2023-05-01T12:09:08.687Z,27.54
2023-05-01T12:11:35.560Z,27.61
2023-05-01T12:14:02.576Z,28.12
2023-05-01T12:16:30.130Z,28.37
2023-05-01T12:18:57.102Z,28.06
2023-05-01T12:21:23.797Z,28.49
2023-05-01T12:23:50.346Z,28.16
2023-05-01T12:26:22.465Z,28.91
2023-05-01T12:28:59.649Z,28.68
2023-05-01T12:31:27.306Z,28.71
2023-05-01T12:33:58.846Z,28.98
2023-05-01T12:36:26.896Z,27.86
2023-05-01T12:39:02.565Z,27.82
2023-05-01T12:41:46.575Z,27.67
2023-05-01T12:44:24.583Z,27.34
2023-05-01T12:46:53.940Z,27.78
2023-05-01T12:49:21.464Z,28.43
2023-05-01T12:51:55.515Z,28.98
2023-05-01T12:54:22.739Z,28.17
2023-05-01T12:56:52.458Z,29.45
2023-05-01T12:59:23.984Z,29.93
2023-05-01T13:02:17.592Z,28.63
2023-05-01T13:04:45.235Z,28.09
2023-05-01T13:07:15.905Z,27.98
2023-05-01T13:09:53.812Z,27.70
2023-05-01T13:12:20.729Z,27.19
2023-05-01T13:14:47.507Z,28.05
2023-05-01T13:17:23.297Z,27.66
2023-05-01T13:19:58.073Z,27.58
2023-05-01T13:22:40.268Z,27.66
2023-05-01T13:25:18.338Z,27.80
2023-05-01T13:27:52.331Z,28.16
2023-05-01T13:30:31.754Z,27.46
2023-05-01T13:32:58.338Z,26.93
2023-05-01T13:35:26.367Z,27.22
2023-05-01T13:37:53.638Z,26.17
2023-05-01T13:40:20.529Z,26.55
2023-05-01T13:42:47.536Z,26.41
2023-05-01T13:45:19.234Z,26.37
2023-05-01T13:47:45.730Z,26.63
2023-05-01T13:50:16.328Z,26.42
2023-05-01T13:52:44.368Z,26.71
2023-05-01T13:55:11.945Z,26.71
2023-05-01T13:57:39.439Z,27.05
2023-05-01T14:00:08.443Z,27.14
2023-05-01T14:02:42.453Z,27.55
2023-05-01T14:05:09.765Z,27.09
2023-05-01T14:07:44.103Z,27.14
2023-05-01T14:10:10.959Z,27.37
2023-05-01T14:12:38.635Z,26.30
2023-05-01T14:15:09.188Z,26.43
2023-05-01T14:17:36.379Z,27.20
2023-05-01T14:20:06.938Z,27.96
2023-05-01T14:22:42.252Z,27.81
2023-05-01T14:25:26.194Z,27.15
2023-05-01T14:27:53.845Z,25.66
2023-05-01T14:30:29.226Z,25.27
2023-05-01T14:32:56.209Z,25.53
2023-05-01T14:35:24.141Z,25.49
2023-05-01T14:37:51.302Z,25.43
2023-05-01T14:40:19.218Z,25.60
2023-05-01T14:42:45.781Z,26.40
2023-05-01T14:45:16.285Z,26.48
2023-05-01T14:47:47.505Z,26.19
2023-05-01T14:50:22.211Z,26.16
2023-05-01T14:52:56.293Z,26.95
2023-05-01T14:55:30.466Z,27.47
2023-05-01T14:57:57.765Z,27.60
2023-05-01T15:00:24.878Z,27.49
2023-05-01T15:02:51.463Z,26.90
2023-05-01T15:05:18.122Z,27.05
2023-05-01T15:07:44.871Z,27.33
2023-05-01T15:10:11.416Z,26.70
2023-05-01T15:12:38.030Z,26.49
2023-05-01T15:15:05.282Z,26.74
2023-05-01T15:17:33.376Z,27.05
2023-05-01T15:19:59.902Z,27.84
2023-05-01T15:22:26.527Z,28.33
2023-05-01T15:24:53.012Z,28.13
2023-05-01T15:27:19.495Z,27.38
2023-05-01T15:29:46.016Z,27.39
2023-05-01T15:32:13.128Z,27.39
2023-05-01T15:34:40.041Z,27.47
2023-05-01T15:37:06.923Z,27.72
2023-05-01T15:39:33.448Z,27.54
2023-05-01T15:41:59.956Z,27.46
2023-05-01T15:44:26.606Z,27.67
2023-05-01T15:46:53.534Z,27.76
2023-05-01T15:49:20.113Z,28.35
2023-05-01T15:51:46.585Z,28.54
2023-05-01T15:54:13.054Z,28.52
2023-05-01T15:56:39.502Z,28.27
2023-05-01T15:59:07.310Z,28.10
2023-05-01T16:01:35.287Z,28.05
2023-05-01T16:04:03.528Z,27.90
2023-05-01T16:06:30.582Z,27.70
2023-05-01T16:09:00.283Z,27.93
2023-05-01T16:11:27.070Z,27.96
2023-05-01T16:13:53.873Z,27.82
2023-05-01T16:16:24.693Z,28.17
2023-05-01T16:18:56.541Z,28.43
2023-05-01T16:21:24.748Z,28.85
2023-05-01T16:23:52.128Z,28.35
2023-05-01T16:26:21.986Z,28.78
2023-05-01T16:28:48.950Z,28.81
2023-05-01T16:31:26.701Z,29.06
2023-05-01T16:33:54.129Z,29.15
2023-05-01T16:36:20.666Z,29.63
2023-05-01T16:38:47.378Z,29.51
2023-05-01T16:41:16.446Z,29.55
2023-05-01T16:43:44.046Z,29.70
2023-05-01T16:46:11.178Z,29.55
2023-05-01T16:48:38.942Z,30.28
2023-05-01T16:51:05.892Z,30.29
2023-05-01T16:53:32.377Z,29.88
2023-05-01T16:55:59.133Z,30.16
2023-05-01T16:58:26.428Z,30.53
2023-05-01T17:00:53.326Z,30.71
2023-05-01T17:03:19.936Z,30.39
2023-05-01T17:05:46.395Z,30.74
2023-05-01T17:08:12.869Z,30.64
2023-05-01T17:10:39.399Z,30.85
2023-05-01T17:13:05.881Z,31.09
2023-05-01T17:15:32.357Z,31.24
2023-05-01T17:17:58.972Z,30.89
2023-05-01T17:20:25.484Z,30.78
2023-05-01T17:22:52.013Z,30.93
2023-05-01T17:25:18.504Z,31.23
2023-05-01T17:27:44.983Z,31.02
2023-05-01T17:30:11.722Z,31.22
2023-05-01T17:32:38.317Z,31.41
2023-05-01T17:35:05.826Z,31.58
2023-05-01T17:37:32.361Z,32.18
2023-05-01T17:39:59.050Z,32.69
2023-05-01T17:42:25.748Z,32.51
2023-05-01T17:44:52.218Z,32.78
2023-05-01T17:47:18.720Z,32.84
2023-05-01T17:49:45.184Z,32.83
2023-05-01T17:52:11.668Z,33.16
2023-05-01T17:54:38.121Z,33.52
2023-05-01T17:57:04.630Z,33.63
2023-05-01T17:59:31.118Z,33.55
2023-05-01T18:01:57.674Z,33.79
2023-05-01T18:04:24.351Z,34.00
2023-05-01T18:06:50.881Z,33.86
2023-05-01T18:09:17.449Z,34.12
2023-05-01T18:11:43.905Z,34.12
2023-05-01T18:14:10.400Z,34.19
2023-05-01T18:16:36.940Z,34.08
2023-05-01T18:19:03.681Z,34.09
2023-05-01T18:21:30.132Z,33.90
2023-05-01T18:23:56.607Z,34.14
2023-05-01T18:26:23.158Z,34.41
2023-05-01T18:28:49.626Z,34.48
2023-05-01T18:31:16.172Z,34.78
2023-05-01T18:33:42.640Z,34.94
2023-05-01T18:36:09.135Z,35.17
2023-05-01T18:38:35.616Z,35.29
2023-05-01T18:41:02.136Z,35.44
2023-05-01T18:43:28.622Z,35.49
2023-05-01T18:45:55.196Z,35.55
2023-05-01T18:48:22.311Z,35.76
2023-05-01T18:50:57.490Z,35.80
2023-05-01T18:53:34.099Z,35.82
2023-05-01T18:56:00.661Z,36.12
2023-05-01T18:58:27.187Z,36.73
2023-05-01T19:00:55.371Z,36.77
2023-05-01T19:03:24.687Z,37.00
2023-05-01T19:05:51.244Z,37.10
2023-05-01T19:08:17.752Z,37.05
2023-05-01T19:10:44.233Z,37.24
2023-05-01T19:13:10.719Z,37.27
2023-05-01T19:15:37.277Z,37.48
2023-05-01T19:18:03.859Z,37.51
2023-05-01T19:20:30.534Z,37.52
2023-05-01T19:22:56.965Z,37.56
2023-05-01T19:25:24.153Z,37.78
2023-05-01T19:27:50.682Z,37.82
2023-05-01T19:30:17.167Z,38.10
2023-05-01T19:32:45.182Z,38.56
2023-05-01T19:35:11.766Z,38.44
2023-05-01T19:37:38.741Z,38.41
2023-05-01T19:40:06.795Z,38.78
2023-05-01T19:42:33.415Z,38.82
2023-05-01T19:44:59.857Z,38.94
2023-05-01T19:47:26.385Z,39.22
2023-05-01T19:49:52.912Z,39.11
2023-05-01T19:52:19.359Z,39.29
2023-05-01T19:54:45.856Z,39.33
2023-05-01T19:57:12.548Z,39.76
2023-05-01T19:59:39.044Z,39.52
2023-05-01T20:02:06.268Z,39.67
2023-05-01T20:04:34.159Z,39.66
2023-05-01T20:07:00.785Z,39.88
2023-05-01T20:09:27.281Z,40.13
2023-05-01T20:11:53.834Z,40.13
2023-05-01T20:14:20.303Z,40.38
2023-05-01T20:16:46.871Z,40.60
2023-05-01T20:19:13.718Z,40.83
2023-05-01T20:21:40.211Z,40.95
2023-05-01T20:24:06.720Z,41.00
2023-05-01T20:26:33.248Z,41.16
2023-05-01T20:28:59.705Z,41.43
2023-05-01T20:31:26.234Z,41.17
2023-05-01T20:33:52.980Z,41.47
2023-05-01T20:36:19.575Z,41.51
2023-05-01T20:38:46.172Z,41.46
2023-05-01T20:41:12.907Z,41.62
2023-05-01T20:43:39.482Z,41.59
2023-05-01T20:46:06.018Z,41.92
2023-05-01T20:48:32.680Z,42.32
2023-05-01T20:50:59.178Z,42.46
2023-05-01T20:53:25.659Z,42.59
2023-05-01T20:55:52.139Z,42.77
2023-05-01T20:58:18.680Z,42.96
2023-05-01T21:00:45.137Z,42.89
2023-05-01T21:03:11.740Z,43.01
2023-05-01T21:05:38.277Z,43.39
2023-05-01T21:08:04.844Z,43.52
2023-05-01T21:10:31.336Z,43.55
2023-05-01T21:12:57.943Z,43.77
2023-05-01T21:15:24.683Z,43.97
2023-05-01T21:17:51.249Z,44.26
2023-05-01T21:20:32.389Z,44.60
2023-05-01T21:23:02.453Z,44.77
2023-05-01T21:25:29.448Z,44.93
2023-05-01T21:27:56.189Z,45.13
2023-05-01T21:30:29.939Z,45.23
2023-05-01T21:32:56.797Z,45.13
2023-05-01T21:35:23.501Z,45.37
2023-05-01T21:37:50.137Z,45.28
2023-05-01T21:40:18.200Z,45.46
2023-05-01T21:42:44.913Z,45.60
2023-05-01T21:45:13.283Z,45.86
2023-05-01T21:47:42.120Z,45.92
2023-05-01T21:50:11.854Z,45.73
2023-05-01T21:52:38.674Z,46.18
2023-05-01T21:55:07.895Z,46.28
2023-05-01T21:57:39.241Z,46.30
2023-05-01T22:00:08.299Z,46.53
2023-05-01T22:02:43.302Z,46.60
2023-05-01T22:05:11.205Z,46.57
2023-05-01T22:07:38.884Z,46.83
2023-05-01T22:10:09.875Z,46.94
2023-05-01T22:12:36.386Z,47.45
2023-05-01T22:15:03.047Z,47.40
2023-05-01T22:17:29.565Z,47.56
2023-05-01T22:19:56.073Z,47.80
2023-05-01T22:22:22.551Z,47.93
2023-05-01T22:24:49.047Z,48.20
2023-05-01T22:27:15.579Z,48.32
2023-05-01T22:29:42.202Z,48.33
2023-05-01T22:32:08.957Z,48.44
2023-05-01T22:34:35.497Z,48.49
2023-05-01T22:37:02.028Z,48.69
2023-05-01T22:39:28.529Z,48.76
2023-05-01T22:41:55.036Z,48.87
2023-05-01T22:44:22.430Z,48.82
2023-05-01T22:46:49.126Z,49.07
2023-05-01T22:49:15.630Z,48.97
2023-05-01T22:51:42.117Z,49.16
2023-05-01T22:54:08.592Z,49.52
2023-05-01T22:56:35.062Z,49.50
2023-05-01T22:59:01.629Z,49.71
2023-05-01T23:01:28.228Z,49.80
2023-05-01T23:03:55.213Z,49.75
2023-05-01T23:06:21.870Z,49.55
2023-05-01T23:08:51.929Z,49.70
2023-05-01T23:11:18.446Z,49.67
2023-05-01T23:13:48.582Z,49.56
2023-05-01T23:16:15.337Z,49.46
2023-05-01T23:18:42.463Z,49.38
2023-05-01T23:21:10.849Z,49.49
2023-05-01T23:23:41.478Z,49.31
2023-05-01T23:26:07.953Z,49.34
2023-05-01T23:28:34.564Z,49.23
2023-05-01T23:31:02.750Z,49.26
2023-05-01T23:33:36.748Z,49.36
2023-05-01T23:36:03.868Z,49.45
2023-05-01T23:38:30.365Z,49.29
2023-05-01T23:40:56.864Z,49.55
2023-05-01T23:43:23.401Z,49.57
2023-05-01T23:45:49.864Z,49.50
2023-05-01T23:48:16.396Z,49.62
2023-05-01T23:50:42.986Z,49.31
2023-05-01T23:53:09.896Z,49.47
2023-05-01T23:55:36.925Z,49.71
2023-05-01T23:58:03.834Z,49.34
